createdAt,value
2022-09-23T00:01:34.225Z,100480.84
2022-09-23T00:04:01.909Z,100479.00
2022-09-23T00:06:29.411Z,100478.59
2022-09-23T00:08:57.333Z,100484.25
2022-09-23T00:11:27.569Z,100486.50
2022-09-23T00:13:58.635Z,100481.13
2022-09-23T00:16:29.402Z,100484.25
2022-09-23T00:18:59.300Z,100483.66
2022-09-23T00:21:26.873Z,100480.75
2022-09-23T00:23:54.567Z,100480.53
2022-09-23T00:26:24.131Z,100490.28
2022-09-23T00:28:52.038Z,100479.91
2022-09-23T00:31:26.109Z,100477.00
2022-09-23T00:33:59.705Z,100472.06
2022-09-23T00:36:28.858Z,100478.47
2022-09-23T00:38:56.736Z,100472.47
2022-09-23T00:41:25.660Z,100463.34
2022-09-23T00:43:58.808Z,100460.03
2022-09-23T00:46:36.307Z,100457.34
2022-09-23T00:49:27.085Z,100457.34
2022-09-23T00:52:01.601Z,100454.88
2022-09-23T00:54:32.913Z,100447.59
2022-09-23T00:57:01.685Z,100453.84
2022-09-23T00:59:29.872Z,100453.03
2022-09-23T01:01:58.837Z,100449.72
2022-09-23T01:04:29.210Z,100455.50
2022-09-23T01:06:56.975Z,100454.69
2022-09-23T01:09:25.746Z,100468.97
2022-09-23T01:12:10.127Z,100463.34
2022-09-23T01:14:56.149Z,100463.78
2022-09-23T01:17:27.356Z,100458.81
2022-09-23T01:20:13.821Z,100460.87
2022-09-23T01:23:29.596Z,100463.16
2022-09-23T01:26:16.134Z,100464.19
2022-09-23T01:29:05.050Z,100459.84
2022-09-23T01:31:42.925Z,100462.53
2022-09-23T01:34:27.285Z,100454.88
2022-09-23T01:37:05.593Z,100461.50
2022-09-23T01:39:40.573Z,100453.00
2022-09-23T01:42:22.150Z,100456.75
2022-09-23T01:45:00.732Z,100465.03
2022-09-23T01:47:31.517Z,100460.47
2022-09-23T01:50:27.714Z,100458.81
2022-09-23T01:52:59.094Z,100461.31
2022-09-23T01:55:35.138Z,100458.81
2022-09-23T01:58:09.459Z,100457.78
2022-09-23T02:00:42.803Z,100459.25
2022-09-23T02:03:22.134Z,100451.38
2022-09-23T02:05:54.432Z,100454.06
2022-09-23T02:08:24.622Z,100454.25
2022-09-23T02:11:24.599Z,100453.41
2022-09-23T02:14:00.521Z,100450.09
2022-09-23T02:16:51.431Z,100446.59
2022-09-23T02:19:27.175Z,100448.47
2022-09-23T02:22:06.126Z,100450.94
2022-09-23T02:24:39.921Z,100442.66
2022-09-23T02:27:10.429Z,100451.16
2022-09-23T02:30:02.586Z,100447.00
2022-09-23T02:32:37.130Z,100447.84
2022-09-23T02:35:13.425Z,100452.62
2022-09-23T02:37:59.544Z,100445.78
2022-09-23T02:40:38.852Z,100446.59
2022-09-23T02:43:28.084Z,100447.44
2022-09-23T02:45:56.403Z,100447.00
2022-09-23T02:48:33.262Z,100447.41
2022-09-23T02:51:03.653Z,100446.38
2022-09-23T02:53:34.719Z,100450.75
2022-09-23T02:56:03.446Z,100445.97
2022-09-23T02:58:31.178Z,100451.56
2022-09-23T03:01:32.654Z,100456.75
2022-09-23T03:04:17.052Z,100446.63
2022-09-23T03:06:59.957Z,100454.44
2022-09-23T03:10:04.435Z,100450.94
2022-09-23T03:12:52.932Z,100445.97
2022-09-23T03:15:53.459Z,100452.19
2022-09-23T03:18:44.751Z,100449.28
2022-09-23T03:21:24.663Z,100452.59
2022-09-23T03:23:54.661Z,100451.97
2022-09-23T03:26:26.534Z,100450.09
2022-09-23T03:28:54.942Z,100458.75
2022-09-23T03:31:30.190Z,100452.12
2022-09-23T03:34:01.302Z,100454.41
2022-09-23T03:36:53.926Z,100454.63
2022-09-23T03:39:33.459Z,100454.00
2022-09-23T03:42:07.546Z,100458.34
2022-09-23T03:44:39.703Z,100452.94
2022-09-23T03:47:07.806Z,100453.16
2022-09-23T03:49:40.306Z,100459.16
2022-09-23T03:52:08.002Z,100451.09
2022-09-23T03:54:40.077Z,100453.38
2022-09-23T03:57:07.619Z,100445.50
2022-09-23T03:59:37.981Z,100452.28
2022-09-23T04:02:09.321Z,100450.41
2022-09-23T04:04:41.122Z,100448.75
2022-09-23T04:07:08.830Z,100449.59
2022-09-23T04:09:36.855Z,100457.84
2022-09-23T04:12:05.487Z,100460.75
2022-09-23T04:14:32.995Z,100458.25
2022-09-23T04:17:00.545Z,100456.41
2022-09-23T04:19:29.675Z,100460.94
2022-09-23T04:21:57.336Z,100459.50
2022-09-23T04:24:25.079Z,100461.97
2022-09-23T04:26:57.013Z,100463.63
2022-09-23T04:29:25.538Z,100461.97
2022-09-23T04:31:53.668Z,100461.56
2022-09-23T04:34:23.600Z,100461.56
2022-09-23T04:36:51.672Z,100461.53
2022-09-23T04:39:19.482Z,100462.38
2022-09-23T04:41:47.567Z,100466.09
2022-09-23T04:44:16.062Z,100470.81
2022-09-23T04:46:48.022Z,100471.47
2022-09-23T04:49:18.993Z,100475.19
2022-09-23T04:51:46.733Z,100469.81
2022-09-23T04:54:17.666Z,100463.22
2022-09-23T04:56:45.234Z,100467.97
2022-09-23T04:59:15.692Z,100468.19
2022-09-23T05:01:47.612Z,100476.69
2022-09-23T05:04:15.363Z,100469.06
2022-09-23T05:06:45.137Z,100482.31
2022-09-23T05:09:17.998Z,100484.41
2022-09-23T05:11:46.131Z,100486.06
2022-09-23T05:14:13.808Z,100492.06
2022-09-23T05:16:41.767Z,100481.50
2022-09-23T05:19:09.338Z,100492.69
2022-09-23T05:21:37.825Z,100490.47
2022-09-23T05:24:05.686Z,100489.44
2022-09-23T05:26:34.014Z,100496.88
2022-09-23T05:29:02.897Z,100495.88
2022-09-23T05:31:31.777Z,100500.84
2022-09-23T05:34:02.112Z,100506.03
2022-09-23T05:36:36.928Z,100503.16
2022-09-23T05:39:05.918Z,100504.59
2022-09-23T05:41:33.902Z,100504.56
2022-09-23T05:44:01.768Z,100508.53
2022-09-23T05:46:31.459Z,100509.78
2022-09-23T05:49:02.855Z,100512.69
2022-09-23T05:51:31.880Z,100516.38
2022-09-23T05:54:02.867Z,100510.97
2022-09-23T05:56:34.699Z,100508.00
2022-09-23T05:59:03.359Z,100509.81
2022-09-23T06:01:35.254Z,100503.97
2022-09-23T06:04:04.612Z,100508.72
2022-09-23T06:06:35.399Z,100506.75
2022-09-23T06:09:03.657Z,100502.34
2022-09-23T06:11:32.465Z,100510.50
2022-09-23T06:14:02.226Z,100499.62
2022-09-23T06:16:34.787Z,100509.25
2022-09-23T06:19:06.326Z,100489.75
2022-09-23T06:21:36.782Z,100499.34
2022-09-23T06:24:04.814Z,100510.19
2022-09-23T06:26:34.952Z,100509.78
2022-09-23T06:29:06.735Z,100503.91
2022-09-23T06:31:34.448Z,100502.16
2022-09-23T06:34:10.800Z,100506.72
2022-09-23T06:36:44.482Z,100511.87
2022-09-23T06:39:13.349Z,100507.94
2022-09-23T06:41:40.909Z,100505.72
2022-09-23T06:44:08.596Z,100514.25
2022-09-23T06:46:36.797Z,100514.75
2022-09-23T06:49:04.493Z,100518.13
2022-09-23T06:51:32.022Z,100522.69
2022-09-23T06:53:59.666Z,100526.66
2022-09-23T06:56:27.257Z,100528.13
2022-09-23T06:58:55.947Z,100529.34
2022-09-23T07:01:24.285Z,100523.22
2022-09-23T07:03:52.079Z,100519.75
2022-09-23T07:06:19.961Z,100526.56
2022-09-23T07:08:48.461Z,100520.88
2022-09-23T07:11:22.594Z,100511.75
2022-09-23T07:13:52.378Z,100523.38
2022-09-23T07:16:21.217Z,100523.16
2022-09-23T07:18:48.827Z,100523.84
2022-09-23T07:21:19.591Z,100531.72
2022-09-23T07:23:50.095Z,100524.87
2022-09-23T07:26:22.905Z,100538.19
2022-09-23T07:28:56.409Z,100533.53
2022-09-23T07:31:37.976Z,100530.50
2022-09-23T07:34:08.495Z,100537.94
2022-09-23T07:36:40.502Z,100536.97
2022-09-23T07:39:11.225Z,100533.03
2022-09-23T07:41:38.785Z,100543.44
2022-09-23T07:44:06.914Z,100540.34
2022-09-23T07:46:37.330Z,100544.63
2022-09-23T07:49:06.240Z,100545.84
2022-09-23T07:51:39.039Z,100536.81
2022-09-23T07:54:10.615Z,100536.88
2022-09-23T07:56:39.457Z,100534.38
2022-09-23T07:59:11.124Z,100530.31
2022-09-23T08:01:41.250Z,100534.34
2022-09-23T08:04:29.759Z,100532.91
2022-09-23T08:07:00.113Z,100541.81
2022-09-23T08:09:35.718Z,100548.09
2022-09-23T08:12:03.716Z,100531.53
2022-09-23T08:14:31.306Z,100542.19
2022-09-23T08:16:59.488Z,100534.38
2022-09-23T08:19:27.192Z,100540.03
2022-09-23T08:21:55.124Z,100540.06
2022-09-23T08:24:24.182Z,100531.84
2022-09-23T08:26:53.388Z,100539.03
2022-09-23T08:29:29.761Z,100541.81
2022-09-23T08:32:05.776Z,100540.56
2022-09-23T08:34:34.384Z,100536.50
2022-09-23T08:37:04.155Z,100529.13
2022-09-23T08:39:31.713Z,100531.38
2022-09-23T08:42:05.086Z,100524.91
2022-09-23T08:44:47.738Z,100520.53
2022-09-23T08:47:20.914Z,100517.97
2022-09-23T08:50:06.634Z,100525.03
2022-09-23T08:52:42.718Z,100528.72
2022-09-23T08:55:21.172Z,100524.00
2022-09-23T08:58:26.453Z,100520.34
2022-09-23T09:01:02.466Z,100520.69
2022-09-23T09:03:56.239Z,100519.72
2022-09-23T09:06:36.195Z,100531.22
2022-09-23T09:09:31.645Z,100526.19
2022-09-23T09:12:19.478Z,100524.53
2022-09-23T09:15:02.949Z,100514.28
2022-09-23T09:17:45.820Z,100511.50
2022-09-23T09:20:19.878Z,100515.72
2022-09-23T09:22:57.691Z,100516.47
2022-09-23T09:25:40.782Z,100513.28
2022-09-23T09:28:18.970Z,100520.72
2022-09-23T09:30:51.473Z,100512.53
2022-09-23T09:33:27.592Z,100509.59
2022-09-23T09:36:13.766Z,100518.37
2022-09-23T09:38:41.321Z,100505.66
2022-09-23T09:41:18.043Z,100509.81
2022-09-23T09:43:52.576Z,100506.97
2022-09-23T09:46:48.378Z,100506.16
2022-09-23T09:49:42.243Z,100504.03
2022-09-23T09:52:29.883Z,100500.53
2022-09-23T09:55:29.621Z,100491.44
2022-09-23T09:58:05.157Z,100493.41
2022-09-23T10:00:32.630Z,100494.59
2022-09-23T10:03:17.285Z,100486.41
2022-09-23T10:05:44.889Z,100483.22
2022-09-23T10:08:38.329Z,100477.31
2022-09-23T10:11:12.207Z,100480.38
2022-09-23T10:13:39.912Z,100481.03
2022-09-23T10:16:07.819Z,100474.47
2022-09-23T10:18:40.677Z,100473.03
2022-09-23T10:21:12.663Z,100478.75
2022-09-23T10:23:45.585Z,100487.03
2022-09-23T10:26:16.847Z,100472.59
2022-09-23T10:28:50.243Z,100480.72
2022-09-23T10:31:25.810Z,100481.53
2022-09-23T10:34:00.738Z,100472.44
2022-09-23T10:36:40.139Z,100478.91
2022-09-23T10:39:40.357Z,100478.34
2022-09-23T10:42:44.671Z,100468.91
2022-09-23T10:45:52.199Z,100472.28
2022-09-23T10:48:35.906Z,100466.31
2022-09-23T10:51:25.493Z,100468.19
2022-09-23T10:54:18.568Z,100459.66
2022-09-23T10:57:41.725Z,100465.78
2022-09-23T11:00:28.878Z,100462.03
2022-09-23T11:03:17.335Z,100463.91
2022-09-23T11:06:05.901Z,100456.50
2022-09-23T11:08:38.554Z,100451.81
2022-09-23T11:11:23.167Z,100446.81
2022-09-23T11:14:00.372Z,100442.09
2022-09-23T11:16:46.369Z,100435.31
2022-09-23T11:19:17.348Z,100444.59
2022-09-23T11:22:09.380Z,100445.91
2022-09-23T11:24:58.317Z,100437.78
2022-09-23T11:27:41.987Z,100427.06
2022-09-23T11:30:12.712Z,100437.00
2022-09-23T11:32:48.192Z,100436.22
2022-09-23T11:35:44.814Z,100424.75
2022-09-23T11:38:25.227Z,100419.53
2022-09-23T11:41:25.733Z,100415.38
2022-09-23T11:44:40.242Z,100417.13
2022-09-23T11:47:19.598Z,100415.47
2022-09-23T11:50:06.673Z,100414.72
2022-09-23T11:52:45.729Z,100414.34
2022-09-23T11:55:25.345Z,100409.44
2022-09-23T11:57:56.116Z,100397.16
2022-09-23T12:00:32.896Z,100407.59
2022-09-23T12:03:43.085Z,100403.19
2022-09-23T12:06:47.225Z,100404.00
2022-09-23T12:09:47.211Z,100401.12
2022-09-23T12:12:51.893Z,100406.53
2022-09-23T12:15:34.400Z,100398.84
2022-09-23T12:18:37.144Z,100389.66
2022-09-23T12:21:49.214Z,100384.84
2022-09-23T12:24:27.627Z,100390.41
2022-09-23T12:27:00.331Z,100385.69
2022-09-23T12:29:33.001Z,100380.22
2022-09-23T12:32:01.317Z,100376.94
2022-09-23T12:34:41.599Z,100380.50
2022-09-23T12:37:11.266Z,100376.09
2022-09-23T12:39:47.652Z,100374.62
2022-09-23T12:42:23.804Z,100361.75
2022-09-23T12:44:53.371Z,100359.28
2022-09-23T12:47:25.216Z,100359.00
2022-09-23T12:49:53.984Z,100354.50
2022-09-23T12:52:28.587Z,100352.37
2022-09-23T12:55:22.041Z,100358.69
2022-09-23T12:57:52.097Z,100353.09
2022-09-23T13:00:30.947Z,100346.00
2022-09-23T13:03:21.790Z,100338.09
2022-09-23T13:06:10.557Z,100339.16
2022-09-23T13:08:43.719Z,100339.22
2022-09-23T13:11:28.913Z,100337.06
2022-09-23T13:14:03.242Z,100334.59
2022-09-23T13:16:37.044Z,100332.19
2022-09-23T13:19:05.933Z,100329.75
2022-09-23T13:21:48.436Z,100328.03
2022-09-23T13:24:26.287Z,100329.28
2022-09-23T13:26:58.567Z,100332.31
2022-09-23T13:29:37.561Z,100329.50
2022-09-23T13:32:15.788Z,100329.00
2022-09-23T13:34:47.597Z,100325.16
2022-09-23T13:37:22.520Z,100324.78
2022-09-23T13:39:51.459Z,100326.72
2022-09-23T13:42:28.151Z,100322.97
2022-09-23T13:45:00.372Z,100316.28
2022-09-23T13:47:32.011Z,100312.19
2022-09-23T13:49:59.682Z,100313.00
2022-09-23T13:52:30.950Z,100315.47
2022-09-23T13:54:58.643Z,100310.12
2022-09-23T13:57:30.349Z,100305.34
2022-09-23T14:00:03.104Z,100317.81
2022-09-23T14:02:32.923Z,100306.66
2022-09-23T14:05:12.437Z,100308.94
2022-09-23T14:07:41.484Z,100314.50
2022-09-23T14:10:20.077Z,100305.88
2022-09-23T14:12:52.426Z,100307.69
2022-09-23T14:15:23.208Z,100295.72
2022-09-23T14:18:05.383Z,100301.81
2022-09-23T14:20:34.275Z,100298.81
2022-09-23T14:23:14.706Z,100295.31
2022-09-23T14:25:45.349Z,100294.00
2022-09-23T14:28:18.494Z,100284.47
2022-09-23T14:30:50.939Z,100287.25
2022-09-23T14:33:33.213Z,100291.66
2022-09-23T14:36:16.955Z,100285.09
2022-09-23T14:38:52.826Z,100285.38
2022-09-23T14:41:26.415Z,100290.59
2022-09-23T14:44:02.108Z,100287.25
2022-09-23T14:46:38.380Z,100281.44
2022-09-23T14:49:11.647Z,100283.84
2022-09-23T14:51:42.289Z,100269.50
2022-09-23T14:54:57.575Z,100268.38
2022-09-23T14:57:25.401Z,100274.81
2022-09-23T15:00:00.189Z,100270.31
2022-09-23T15:02:37.955Z,100267.44
2022-09-23T15:05:18.348Z,100269.56
2022-09-23T15:07:50.469Z,100262.38
2022-09-23T15:10:27.978Z,100267.91
2022-09-23T15:13:02.521Z,100268.38
2022-09-23T15:15:30.331Z,100268.16
2022-09-23T15:18:05.742Z,100263.53
2022-09-23T15:20:34.259Z,100271.53
2022-09-23T15:23:02.187Z,100266.69
2022-09-23T15:25:32.548Z,100268.81
2022-09-23T15:28:13.125Z,100266.19
2022-09-23T15:30:41.952Z,100263.53
2022-09-23T15:33:14.099Z,100260.91
2022-09-23T15:35:47.665Z,100260.22
2022-09-23T15:38:18.549Z,100262.75
2022-09-23T15:40:46.183Z,100255.94
2022-09-23T15:43:20.709Z,100254.59
2022-09-23T15:45:55.842Z,100253.53
2022-09-23T15:48:32.458Z,100244.28
2022-09-23T15:51:04.982Z,100249.75
2022-09-23T15:53:32.555Z,100254.16
2022-09-23T15:56:06.273Z,100257.16
2022-09-23T15:58:37.083Z,100249.78
2022-09-23T16:01:04.927Z,100259.62
2022-09-23T16:03:32.688Z,100258.50
2022-09-23T16:06:03.204Z,100263.41
2022-09-23T16:08:32.908Z,100261.72
2022-09-23T16:11:02.109Z,100261.72
2022-09-23T16:13:29.863Z,100259.50
2022-09-23T16:15:57.718Z,100257.28
2022-09-23T16:18:25.862Z,100264.66
2022-09-23T16:20:54.243Z,100261.63
2022-09-23T16:23:34.318Z,100260.78
2022-09-23T16:26:08.360Z,100267.03
2022-09-23T16:28:36.009Z,100272.47
2022-09-23T16:31:03.505Z,100267.50
2022-09-23T16:33:34.593Z,100266.34
2022-09-23T16:36:02.612Z,100261.63
2022-09-23T16:38:30.543Z,100262.91
2022-09-23T16:41:00.865Z,100260.06
2022-09-23T16:43:31.625Z,100264.84
2022-09-23T16:45:59.674Z,100266.59
2022-09-23T16:48:29.390Z,100268.66
2022-09-23T16:51:01.482Z,100268.50
2022-09-23T16:53:33.080Z,100263.47
2022-09-23T16:56:07.230Z,100269.09
2022-09-23T16:58:34.739Z,100260.28
2022-09-23T17:01:20.544Z,100269.38
2022-09-23T17:03:48.245Z,100267.63
2022-09-23T17:06:20.550Z,100259.25
2022-09-23T17:08:49.364Z,100262.94
2022-09-23T17:11:17.161Z,100264.09
2022-09-23T17:13:45.643Z,100256.00
2022-09-23T17:16:25.912Z,100261.28
2022-09-23T17:18:55.469Z,100253.50
2022-09-23T17:21:27.826Z,100255.00
2022-09-23T17:23:56.814Z,100261.41
2022-09-23T17:26:26.521Z,100263.97
2022-09-23T17:28:55.751Z,100265.22
2022-09-23T17:31:25.690Z,100267.50
2022-09-23T17:33:56.214Z,100264.37
2022-09-23T17:36:23.747Z,100270.22
2022-09-23T17:38:53.564Z,100273.06
2022-09-23T17:41:21.719Z,100272.97
2022-09-23T17:43:54.569Z,100270.91
2022-09-23T17:46:22.165Z,100261.25
2022-09-23T17:51:45.805Z,100270.81
2022-09-23T17:54:14.995Z,100272.13
2022-09-23T17:56:43.455Z,100281.00
2022-09-23T17:59:12.763Z,100273.59
2022-09-23T18:01:41.098Z,100267.25
2022-09-23T18:04:10.959Z,100274.56
2022-09-23T18:06:42.439Z,100275.25
2022-09-23T18:09:10.501Z,100284.94
2022-09-23T18:11:40.646Z,100282.72
2022-09-23T18:14:22.492Z,100283.69
2022-09-23T18:17:06.786Z,100279.47
2022-09-23T18:19:36.741Z,100273.09
2022-09-23T18:22:04.274Z,100286.06
2022-09-23T18:24:33.429Z,100286.53
2022-09-23T18:27:06.539Z,100288.81
2022-09-23T18:29:34.889Z,100295.03
2022-09-23T18:32:05.246Z,100286.47
2022-09-23T18:34:35.378Z,100280.56
2022-09-23T18:37:02.940Z,100294.25
2022-09-23T18:39:32.919Z,100292.00
2022-09-23T18:42:02.663Z,100293.78
2022-09-23T18:44:31.197Z,100289.19
2022-09-23T18:46:58.714Z,100302.81
2022-09-23T18:49:46.205Z,100301.06
2022-09-23T18:52:13.747Z,100300.94
2022-09-23T18:54:42.564Z,100299.28
2022-09-23T18:57:10.050Z,100294.81
2022-09-23T18:59:40.020Z,100293.66
2022-09-23T19:02:07.752Z,100296.56
2022-09-23T19:04:37.846Z,100303.72
2022-09-23T19:07:05.560Z,100290.66
2022-09-23T19:09:33.491Z,100292.38
2022-09-23T19:12:02.431Z,100292.03
2022-09-23T19:14:31.064Z,100282.38
2022-09-23T19:17:01.281Z,100288.37
2022-09-23T19:19:30.408Z,100291.22
2022-09-23T19:21:58.050Z,100288.97
2022-09-23T19:24:25.976Z,100287.06
2022-09-23T19:26:55.440Z,100290.59
2022-09-23T19:29:25.584Z,100293.06
2022-09-23T19:31:53.125Z,100291.19
2022-09-23T19:34:24.719Z,100294.41
2022-09-23T19:36:52.820Z,100297.34
2022-09-23T19:39:22.918Z,100284.37
2022-09-23T19:41:52.614Z,100287.09
2022-09-23T19:44:20.288Z,100282.75
2022-09-23T19:46:53.406Z,100276.38
2022-09-23T19:49:25.091Z,100287.19
2022-09-23T19:51:55.794Z,100285.53
2022-09-23T19:54:26.533Z,100284.13
2022-09-23T19:56:54.237Z,100293.88
2022-09-23T19:59:26.387Z,100292.22
2022-09-23T20:01:54.125Z,100295.84
2022-09-23T20:04:33.300Z,100292.75
2022-09-23T20:07:01.074Z,100288.19
2022-09-23T20:09:29.031Z,100295.69
2022-09-23T20:11:56.894Z,100287.44
2022-09-23T20:14:24.584Z,100292.50
2022-09-23T20:16:53.093Z,100288.13
2022-09-23T20:19:23.044Z,100283.41
2022-09-23T20:22:08.355Z,100284.47
2022-09-23T20:24:36.573Z,100280.56
2022-09-23T20:27:09.130Z,100285.81
2022-09-23T20:29:37.303Z,100280.50
2022-09-23T20:32:05.278Z,100285.75
2022-09-23T20:34:33.634Z,100280.44
2022-09-23T20:37:05.279Z,100285.03
2022-09-23T20:39:35.055Z,100289.19
2022-09-23T20:42:06.143Z,100291.75
2022-09-23T20:44:33.733Z,100289.13
2022-09-23T20:47:03.778Z,100284.19
2022-09-23T20:49:32.723Z,100281.97
2022-09-23T20:52:00.732Z,100279.09
2022-09-23T20:54:29.724Z,100273.12
2022-09-23T20:56:57.351Z,100276.81
2022-09-23T20:59:27.805Z,100286.41
2022-09-23T21:01:58.290Z,100281.41
2022-09-23T21:04:28.507Z,100287.66
2022-09-23T21:06:57.455Z,100283.59
2022-09-23T21:09:27.583Z,100288.16
2022-09-23T21:11:55.925Z,100287.34
2022-09-23T21:14:23.978Z,100288.06
2022-09-23T21:16:54.697Z,100283.16
2022-09-23T21:19:22.660Z,100278.34
2022-09-23T21:21:50.408Z,100292.78
2022-09-23T21:25:21.443Z,100291.81
2022-09-23T21:27:07.492Z,100288.06
2022-09-23T21:29:34.985Z,100287.84
2022-09-23T21:32:02.985Z,100294.87
2022-09-23T21:34:33.083Z,100290.53
2022-09-23T21:37:01.875Z,100283.31
2022-09-23T21:39:29.419Z,100291.66
2022-09-23T21:41:59.014Z,100291.31
2022-09-23T21:44:28.923Z,100301.72
2022-09-23T21:46:58.192Z,100302.94
2022-09-23T21:49:25.904Z,100305.63
2022-09-23T21:51:58.833Z,100296.94
2022-09-23T21:54:29.625Z,100300.06
2022-09-23T21:56:57.154Z,100298.41
2022-09-23T21:59:26.963Z,100305.91
2022-09-23T22:01:56.075Z,100309.00
2022-09-23T22:04:23.638Z,100303.44
2022-09-23T22:06:53.970Z,100306.13
2022-09-23T22:09:22.740Z,100301.56
2022-09-23T22:12:11.190Z,100302.38
2022-09-23T22:14:39.363Z,100306.34
2022-09-23T22:17:10.554Z,100298.91
2022-09-23T22:19:44.214Z,100293.97
2022-09-23T22:22:15.547Z,100298.09
2022-09-23T22:24:44.283Z,100299.94
2022-09-23T22:27:13.701Z,100295.38
2022-09-23T22:29:59.071Z,100292.53
2022-09-23T22:32:43.966Z,100306.38
2022-09-23T22:35:24.850Z,100298.75
2022-09-23T22:37:53.405Z,100300.00
2022-09-23T22:40:21.196Z,100297.31
2022-09-23T22:42:49.732Z,100288.19
2022-09-23T22:45:17.521Z,100301.66
2022-09-23T22:47:46.037Z,100303.31
2022-09-23T22:50:15.632Z,100298.13
2022-09-23T22:52:43.476Z,100296.25
2022-09-23T22:55:11.553Z,100298.56
2022-09-23T22:57:39.147Z,100307.69
2022-09-23T23:00:08.243Z,100295.88
2022-09-23T23:02:37.175Z,100295.88
2022-09-23T23:05:05.259Z,100297.91
2022-09-23T23:07:35.064Z,100298.13
2022-09-23T23:10:07.282Z,100294.63
2022-09-23T23:12:34.793Z,100301.66
2022-09-23T23:15:02.306Z,100292.34
2022-09-23T23:17:29.981Z,100298.78
2022-09-23T23:19:59.916Z,100294.22
2022-09-23T23:22:29.251Z,100302.53
2022-09-23T23:24:56.888Z,100295.50
2022-09-23T23:27:24.385Z,100288.44
2022-09-23T23:29:51.888Z,100291.78
2022-09-23T23:32:19.377Z,100286.00
2022-09-23T23:34:46.901Z,100277.75
2022-09-23T23:37:20.776Z,100288.28
2022-09-23T23:39:48.839Z,100286.62
2022-09-23T23:42:18.983Z,100286.00
2022-09-23T23:44:46.507Z,100279.81
2022-09-23T23:47:14.001Z,100290.81
2022-09-23T23:49:42.571Z,100282.75
2022-09-23T23:52:12.326Z,100287.69
2022-09-23T23:54:40.112Z,100284.41
2022-09-23T23:57:07.691Z,100283.56
2022-09-23T23:59:35.350Z,100289.78
